Time;durP1;ratioP1;P1;durP2;ratioP2;P2;SDS_P1;SDS_P2;PMS_P1;PMS_P2;Temp;Humidity;BMP_temperature;BMP_pressure;BME280_temperature;BME280_humidity;BME280_pressure;Samples;Min_cycle;Max_cycle;Signal;HPM_P1;HPM_P2
2024/01/01 00:00:51;;;;;;;255.73;122.43;;;;;;;;;;10282523;28;20046;-81
2024/01/01 00:05:52;;;;;;;232.38;112.90;;;;;;;;;;10281418;28;20046;-84
2024/01/01 00:10:52;;;;;;;225.20;107.95;;;;;;;;;;10298265;28;20077;-81
2024/01/01 00:15:52;;;;;;;237.07;105.95;;;;;;;;;;10293946;28;20077;-83
2024/01/01 00:20:53;;;;;;;232.15;107.85;;;;;;;;;;10293264;28;20355;-81
2024/01/01 00:25:53;;;;;;;239.65;111.10;;;;;;;;;;10285499;28;20067;-82
2024/01/01 00:30:56;;;;;;;234.43;103.10;;;;;;;;;;10277509;28;20324;-93
2024/01/01 00:35:57;;;;;;;220.93;108.75;;;;;;;;;;10291352;28;20046;-81
2024/01/01 00:40:57;;;;;;;224.32;102.88;;;;;;;;;;10274500;28;20033;-81
2024/01/01 00:45:57;;;;;;;225.05;111.30;;;;;;;;;;10292675;28;20381;-81
2024/01/01 00:50:57;;;;;;;215.43;105.57;;;;;;;;;;10274366;28;20323;-80
2024/01/01 00:55:58;;;;;;;236.48;106.38;;;;;;;;;;10293655;28;20021;-83
2024/01/01 01:00:58;;;;;;;256.70;113.90;;;;;;;;;;10332999;28;20023;-86
2024/01/01 01:05:58;;;;;;;251.53;115.90;;;;;;;;;;10308090;28;20045;-86
2024/01/01 01:10:59;;;;;;;266.05;122.72;;;;;;;;;;10313812;28;20027;-87
2024/01/01 01:15:59;;;;;;;272.85;125.95;;;;;;;;;;10317107;28;20029;-86
2024/01/01 01:20:59;;;;;;;231.20;109.32;;;;;;;;;;10293105;28;20022;-85
2024/01/01 01:25:59;;;;;;;244.75;110.32;;;;;;;;;;10297948;28;20343;-85
2024/01/01 01:31:03;;;;;;;251.10;115.13;;;;;;;;;;10293097;28;20068;-79
2024/01/01 01:36:03;;;;;;;246.90;119.25;;;;;;;;;;10312100;28;20011;-83
2024/01/01 01:41:03;;;;;;;235.87;108.67;;;;;;;;;;10312516;28;20026;-82
2024/01/01 01:46:04;;;;;;;248.88;109.85;;;;;;;;;;10296779;28;20052;-80
2024/01/01 01:51:05;;;;;;;141.27;63.03;;;;;;;;;;10304260;28;20049;-80
2024/01/01 01:56:07;;;;;;;91.97;45.25;;;;;;;;;;10314332;28;20021;-80
2024/01/01 02:01:07;;;;;;;100.53;46.00;;;;;;;;;;10314307;28;20039;-79
2024/01/01 02:06:07;;;;;;;86.20;40.03;;;;;;;;;;10304204;28;20317;-79
2024/01/01 02:11:07;;;;;;;66.15;31.73;;;;;;;;;;10308710;28;20281;-79
2024/01/01 02:16:08;;;;;;;62.50;30.35;;;;;;;;;;10310626;28;20026;-79
2024/01/01 02:21:08;;;;;;;56.40;30.08;;;;;;;;;;10306197;28;20057;-78
2024/01/01 02:26:08;;;;;;;56.53;30.23;;;;;;;;;;10303584;28;20025;-79
2024/01/01 02:31:08;;;;;;;55.38;28.55;;;;;;;;;;10316791;28;20289;-80
2024/01/01 02:36:09;;;;;;;64.53;29.38;;;;;;;;;;10308392;28;20363;-80
2024/01/01 02:41:09;;;;;;;71.18;33.67;;;;;;;;;;10313608;28;20022;-78
2024/01/01 02:46:09;;;;;;;79.38;39.13;;;;;;;;;;10305097;28;20031;-78
2024/01/01 02:51:09;;;;;;;73.35;34.08;;;;;;;;;;10293170;28;20217;-76
2024/01/01 02:56:21;;;;;;;68.78;32.38;;;;;;;;;;10298786;28;20416;-79
2024/01/01 03:01:21;;;;;;;72.97;32.90;;;;;;;;;;10307999;28;20064;-77
2024/01/01 03:06:21;;;;;;;73.72;35.30;;;;;;;;;;10319585;28;20243;-77
2024/01/01 03:11:21;;;;;;;62.80;30.70;;;;;;;;;;10319421;28;20025;-79
2024/01/01 03:16:21;;;;;;;61.65;31.80;;;;;;;;;;10312483;28;20011;-79
2024/01/01 03:21:22;;;;;;;95.95;42.90;;;;;;;;;;10308719;28;20328;-78
2024/01/01 03:26:22;;;;;;;101.80;50.85;;;;;;;;;;10313460;28;20236;-79
2024/01/01 03:31:22;;;;;;;99.43;44.63;;;;;;;;;;10313679;28;20048;-79
2024/01/01 03:36:23;;;;;;;65.13;34.78;;;;;;;;;;10306439;28;20606;-78
2024/01/01 03:41:26;;;;;;;61.23;32.07;;;;;;;;;;10306031;28;20326;-80
2024/01/01 03:46:26;;;;;;;73.68;37.17;;;;;;;;;;10317366;28;20307;-79
2024/01/01 03:51:26;;;;;;;110.53;46.33;;;;;;;;;;10311006;28;20044;-79
2024/01/01 03:56:26;;;;;;;74.63;38.95;;;;;;;;;;10307400;28;20025;-79
2024/01/01 04:01:27;;;;;;;72.60;35.88;;;;;;;;;;10307067;28;20063;-79
2024/01/01 04:06:27;;;;;;;61.17;29.17;;;;;;;;;;10308732;28;20104;-80
2024/01/01 04:11:27;;;;;;;47.83;23.88;;;;;;;;;;10318405;28;20030;-78
2024/01/01 04:16:28;;;;;;;60.60;30.97;;;;;;;;;;10316960;28;20022;-77
2024/01/01 04:21:28;;;;;;;65.90;28.95;;;;;;;;;;10315625;28;20053;-79
2024/01/01 04:26:28;;;;;;;64.40;30.42;;;;;;;;;;10310015;28;20094;-80
2024/01/01 04:31:28;;;;;;;62.63;29.30;;;;;;;;;;10312410;28;20022;-79
2024/01/01 04:36:29;;;;;;;64.57;27.08;;;;;;;;;;10305753;28;20308;-78
2024/01/01 04:41:30;;;;;;;62.00;29.65;;;;;;;;;;10313381;28;20309;-78
2024/01/01 04:46:30;;;;;;;57.15;26.08;;;;;;;;;;10301555;28;20186;-78
2024/01/01 04:51:30;;;;;;;60.83;25.67;;;;;;;;;;10308161;28;20261;-77
2024/01/01 04:56:31;;;;;;;55.55;25.88;;;;;;;;;;10310907;28;20045;-78
2024/01/01 05:01:31;;;;;;;43.22;21.58;;;;;;;;;;10313823;28;20085;-77
2024/01/01 05:06:31;;;;;;;45.22;20.85;;;;;;;;;;10311032;28;20025;-79
2024/01/01 05:11:33;;;;;;;42.15;19.98;;;;;;;;;;10304548;28;20057;-79
2024/01/01 05:16:34;;;;;;;43.33;21.30;;;;;;;;;;10307519;28;20057;-79
2024/01/01 05:21:35;;;;;;;48.83;20.90;;;;;;;;;;10310941;28;20567;-79
2024/01/01 05:26:35;;;;;;;50.50;21.58;;;;;;;;;;10318455;28;20120;-78
2024/01/01 05:31:35;;;;;;;53.13;26.58;;;;;;;;;;10305082;28;20014;-78
2024/01/01 05:36:35;;;;;;;46.03;23.55;;;;;;;;;;10312693;28;20029;-78
2024/01/01 05:41:36;;;;;;;42.05;22.73;;;;;;;;;;10313463;28;20019;-79
2024/01/01 05:46:36;;;;;;;53.47;24.83;;;;;;;;;;10304157;28;20034;-79
2024/01/01 05:51:36;;;;;;;56.17;28.40;;;;;;;;;;10305018;28;20281;-77
2024/01/01 05:56:37;;;;;;;49.15;22.23;;;;;;;;;;10304828;28;20055;-78
2024/01/01 06:01:37;;;;;;;39.58;22.42;;;;;;;;;;10304138;28;20034;-79
2024/01/01 06:06:37;;;;;;;41.13;19.42;;;;;;;;;;10309805;28;22018;-79
2024/01/01 06:11:37;;;;;;;40.13;20.60;;;;;;;;;;10306587;28;20827;-78
2024/01/01 06:16:37;;;;;;;35.22;20.10;;;;;;;;;;10285952;28;20023;-78
2024/01/01 06:21:38;;;;;;;40.25;18.70;;;;;;;;;;10309791;28;20030;-78
2024/01/01 06:26:38;;;;;;;36.45;17.65;;;;;;;;;;10307745;28;20069;-78
2024/01/01 06:31:38;;;;;;;36.45;18.50;;;;;;;;;;10305977;28;20076;-78
2024/01/01 06:36:39;;;;;;;43.13;20.23;;;;;;;;;;10306442;28;20252;-78
2024/01/01 06:41:39;;;;;;;37.97;18.83;;;;;;;;;;10313810;28;20006;-78
2024/01/01 06:46:40;;;;;;;35.33;18.02;;;;;;;;;;10302844;28;20030;-78
2024/01/01 06:51:40;;;;;;;40.63;19.33;;;;;;;;;;10307678;28;20065;-78
2024/01/01 06:56:41;;;;;;;38.35;19.40;;;;;;;;;;10309935;28;20220;-78
2024/01/01 07:01:43;;;;;;;33.35;16.95;;;;;;;;;;10304582;28;20027;-78
2024/01/01 07:06:43;;;;;;;37.65;19.17;;;;;;;;;;10280457;28;20011;-78
2024/01/01 07:11:44;;;;;;;35.22;18.42;;;;;;;;;;10290866;28;20336;-78
2024/01/01 07:16:44;;;;;;;39.67;20.55;;;;;;;;;;10309823;28;20034;-78
2024/01/01 07:21:46;;;;;;;35.75;18.80;;;;;;;;;;10294946;28;20054;-79
2024/01/01 07:26:46;;;;;;;34.80;20.30;;;;;;;;;;10307045;28;20011;-78
2024/01/01 07:31:48;;;;;;;51.67;25.17;;;;;;;;;;10312704;28;20018;-79
2024/01/01 07:36:51;;;;;;;52.60;24.27;;;;;;;;;;10316378;28;20169;-80
2024/01/01 07:41:51;;;;;;;51.83;23.92;;;;;;;;;;10313811;28;20304;-79
2024/01/01 07:46:52;;;;;;;48.10;23.77;;;;;;;;;;10296578;28;20227;-79
2024/01/01 07:51:52;;;;;;;55.97;27.10;;;;;;;;;;10296783;28;20010;-78
2024/01/01 07:56:52;;;;;;;62.60;28.13;;;;;;;;;;10305793;28;20329;-79
2024/01/01 08:01:53;;;;;;;705.38;640.38;;;;;;;;;;10325876;28;20451;-88
2024/01/01 08:06:53;;;;;;;170.68;156.25;;;;;;;;;;10306112;28;20010;-84
2024/01/01 08:11:53;;;;;;;79.97;38.38;;;;;;;;;;10323321;28;20324;-85
2024/01/01 08:16:53;;;;;;;133.30;120.35;;;;;;;;;;10306483;28;20027;-77
2024/01/01 08:21:54;;;;;;;92.30;55.33;;;;;;;;;;10317399;28;20028;-76
2024/01/01 08:26:54;;;;;;;87.88;37.60;;;;;;;;;;10305005;28;20019;-77
2024/01/01 08:31:54;;;;;;;79.85;36.10;;;;;;;;;;10305690;28;20316;-81
2024/01/01 08:36:54;;;;;;;76.33;34.63;;;;;;;;;;10299838;28;20325;-78
2024/01/01 08:41:55;;;;;;;73.43;36.65;;;;;;;;;;10310903;28;20277;-77
2024/01/01 08:46:55;;;;;;;90.65;37.63;;;;;;;;;;10310359;28;20038;-79
2024/01/01 08:51:55;;;;;;;84.10;35.70;;;;;;;;;;10315462;28;20074;-78
2024/01/01 08:56:55;;;;;;;75.13;36.50;;;;;;;;;;10297010;28;20045;-80
2024/01/01 09:01:55;;;;;;;86.13;39.95;;;;;;;;;;10313156;28;20245;-87
2024/01/01 09:07:04;;;;;;;94.93;43.22;;;;;;;;;;10294194;28;20026;-89
2024/01/01 09:12:05;;;;;;;95.55;42.40;;;;;;;;;;10298974;28;20034;-79
2024/01/01 09:17:07;;;;;;;83.53;35.75;;;;;;;;;;10336317;23;20046;-76
2024/01/01 09:22:08;;;;;;;143.13;129.10;;;;;;;;;;10296993;28;20085;-78
2024/01/01 09:27:08;;;;;;;96.82;82.20;;;;;;;;;;10303383;28;20100;-81
2024/01/01 09:32:09;;;;;;;68.53;32.80;;;;;;;;;;10315747;28;20034;-77
2024/01/01 09:37:10;;;;;;;79.88;35.80;;;;;;;;;;10298437;28;20022;-78
2024/01/01 09:42:11;;;;;;;76.85;36.38;;;;;;;;;;10296304;28;20405;-81
2024/01/01 09:47:11;;;;;;;68.32;34.63;;;;;;;;;;10296898;28;20023;-77
2024/01/01 09:52:12;;;;;;;71.22;31.30;;;;;;;;;;10293471;28;20041;-76
2024/01/01 09:57:13;;;;;;;70.20;32.13;;;;;;;;;;10297330;28;20535;-77
2024/01/01 10:02:13;;;;;;;67.05;32.70;;;;;;;;;;10298710;28;20079;-76
2024/01/01 10:07:24;;;;;;;51.65;25.95;;;;;;;;;;10314612;28;20080;-77
2024/01/01 10:12:24;;;;;;;56.92;26.80;;;;;;;;;;10275394;28;20035;-80
2024/01/01 10:17:24;;;;;;;60.20;27.17;;;;;;;;;;10234857;28;20086;-78
2024/01/01 10:22:28;;;;;;;44.80;20.67;;;;;;;;;;10237324;28;20490;-78
2024/01/01 10:27:30;;;;;;;45.08;21.25;;;;;;;;;;10237707;28;20106;-80
2024/01/01 10:32:30;;;;;;;51.90;21.90;;;;;;;;;;10252488;28;20463;-77
2024/01/01 10:37:33;;;;;;;51.07;21.77;;;;;;;;;;10249456;28;20015;-77
2024/01/01 10:42:34;;;;;;;38.10;17.40;;;;;;;;;;10237664;28;20267;-82
2024/01/01 10:47:35;;;;;;;46.30;20.63;;;;;;;;;;10244101;28;20564;-75
2024/01/01 10:52:43;;;;;;;42.15;18.58;;;;;;;;;;10257171;28;20374;-75
2024/01/01 10:58:11;;;;;;;70.10;54.83;;;;;;;;;;10259215;28;20023;-77
2024/01/01 11:03:12;;;;;;;201.25;180.98;;;;;;;;;;10260099;28;20099;-82
2024/01/01 11:08:13;;;;;;;39.20;18.60;;;;;;;;;;10230995;28;20511;-76
2024/01/01 11:13:26;;;;;;;34.28;16.15;;;;;;;;;;10269990;28;20031;-76
2024/01/01 11:18:33;;;;;;;33.00;15.40;;;;;;;;;;10264641;28;20062;-79
2024/01/01 11:23:36;;;;;;;44.25;22.48;;;;;;;;;;10248073;28;20180;-77
2024/01/01 11:28:37;;;;;;;534.25;495.33;;;;;;;;;;10242432;28;20027;-79
2024/01/01 11:33:37;;;;;;;55.28;35.00;;;;;;;;;;10247439;28;20731;-78
2024/01/01 11:38:40;;;;;;;946.20;865.78;;;;;;;;;;10242121;28;20033;-80
2024/01/01 11:43:41;;;;;;;995.95;908.45;;;;;;;;;;10244304;28;20019;-77
2024/01/01 11:48:41;;;;;;;1007.13;915.72;;;;;;;;;;10245930;28;20482;-77
2024/01/01 11:53:41;;;;;;;261.35;243.00;;;;;;;;;;10238545;28;20022;-83
2024/01/01 11:58:42;;;;;;;166.15;152.73;;;;;;;;;;10256644;28;20027;-78
2024/01/01 12:03:43;;;;;;;214.32;198.40;;;;;;;;;;10231752;28;20016;-80
2024/01/01 12:08:44;;;;;;;43.85;22.33;;;;;;;;;;10242373;28;20132;-79
2024/01/01 12:13:55;;;;;;;40.20;22.20;;;;;;;;;;10240961;28;20089;-82
2024/01/01 12:18:59;;;;;;;45.25;20.63;;;;;;;;;;10240973;28;20051;-81
2024/01/01 12:24:03;;;;;;;48.22;20.30;;;;;;;;;;10229672;28;20397;-80
2024/01/01 12:29:13;;;;;;;45.45;19.42;;;;;;;;;;10235828;28;20589;-82
2024/01/01 12:34:18;;;;;;;41.70;19.45;;;;;;;;;;10236813;28;20071;-78
2024/01/01 12:39:20;;;;;;;41.08;19.42;;;;;;;;;;10215511;28;20022;-78
2024/01/01 12:44:20;;;;;;;49.15;21.65;;;;;;;;;;10256296;28;20512;-76
2024/01/01 12:49:20;;;;;;;46.55;21.15;;;;;;;;;;10244686;28;20106;-78
2024/01/01 12:54:21;;;;;;;42.08;18.83;;;;;;;;;;10244736;28;20026;-77
2024/01/01 12:59:21;;;;;;;43.78;20.25;;;;;;;;;;10249505;28;20011;-77
2024/01/01 13:04:24;;;;;;;41.28;18.60;;;;;;;;;;10256301;28;20043;-77
2024/01/01 13:09:24;;;;;;;43.95;19.30;;;;;;;;;;10240572;28;20030;-79
2024/01/01 13:14:26;;;;;;;38.17;18.40;;;;;;;;;;10235049;28;20031;-76
2024/01/01 13:19:26;;;;;;;35.60;18.48;;;;;;;;;;10253272;28;20034;-78
2024/01/01 13:24:27;;;;;;;44.20;19.15;;;;;;;;;;10252350;28;20027;-77
2024/01/01 13:29:27;;;;;;;36.77;18.00;;;;;;;;;;10257400;28;20046;-79
2024/01/01 13:34:27;;;;;;;34.50;18.08;;;;;;;;;;10258515;28;20118;-76
2024/01/01 13:39:27;;;;;;;39.22;18.75;;;;;;;;;;10219627;28;20019;-77
2024/01/01 13:44:43;;;;;;;38.80;18.83;;;;;;;;;;10263545;28;20019;-82
2024/01/01 13:49:46;;;;;;;42.60;18.10;;;;;;;;;;10240533;28;20015;-76
2024/01/01 13:54:48;;;;;;;42.78;19.42;;;;;;;;;;10246525;28;20034;-77
2024/01/01 13:59:48;;;;;;;39.38;18.65;;;;;;;;;;10243859;28;20568;-78
2024/01/01 14:04:48;;;;;;;41.85;19.95;;;;;;;;;;10253318;28;20130;-80
2024/01/01 14:09:50;;;;;;;46.60;19.70;;;;;;;;;;10238027;28;20105;-78
2024/01/01 14:14:50;;;;;;;46.47;22.95;;;;;;;;;;10253895;28;20525;-80
2024/01/01 14:19:52;;;;;;;45.47;20.48;;;;;;;;;;10236187;28;20027;-76
2024/01/01 14:24:52;;;;;;;48.67;19.45;;;;;;;;;;10257144;28;20102;-76
2024/01/01 14:29:53;;;;;;;51.15;21.02;;;;;;;;;;10234663;28;20018;-77
2024/01/01 14:34:53;;;;;;;61.30;22.70;;;;;;;;;;10262962;28;20034;-79
2024/01/01 14:39:53;;;;;;;51.50;21.13;;;;;;;;;;10247849;28;20968;-82
2024/01/01 14:44:55;;;;;;;43.85;20.23;;;;;;;;;;10248214;28;20042;-76
2024/01/01 14:49:55;;;;;;;43.92;19.83;;;;;;;;;;10256336;28;20047;-81
2024/01/01 14:54:56;;;;;;;43.63;19.33;;;;;;;;;;10235952;28;20671;-79
2024/01/01 14:59:56;;;;;;;41.50;19.73;;;;;;;;;;10225417;28;20029;-77
2024/01/01 15:04:56;;;;;;;49.28;20.25;;;;;;;;;;10244184;28;20024;-77
2024/01/01 15:09:56;;;;;;;50.22;20.77;;;;;;;;;;10240573;28;20031;-77
2024/01/01 15:14:57;;;;;;;41.05;17.80;;;;;;;;;;10250860;28;20051;-85
2024/01/01 15:19:57;;;;;;;39.23;18.67;;;;;;;;;;10247845;28;20030;-77
2024/01/01 15:24:57;;;;;;;45.70;19.25;;;;;;;;;;10232999;28;20062;-77
2024/01/01 15:29:58;;;;;;;46.43;20.80;;;;;;;;;;10237249;28;20023;-79
2024/01/01 15:34:58;;;;;;;47.63;20.60;;;;;;;;;;10229981;28;20421;-82
2024/01/01 15:40:00;;;;;;;47.15;18.67;;;;;;;;;;10231006;28;20015;-76
2024/01/01 15:45:01;;;;;;;43.70;19.52;;;;;;;;;;10235323;28;20058;-78
2024/01/01 15:50:01;;;;;;;48.28;20.58;;;;;;;;;;10250802;28;20106;-77
2024/01/01 15:55:06;;;;;;;47.58;20.40;;;;;;;;;;10245222;28;20018;-75
2024/01/01 16:00:07;;;;;;;53.78;21.83;;;;;;;;;;10251350;28;20074;-77
2024/01/01 16:05:07;;;;;;;48.08;20.30;;;;;;;;;;10252850;28;20035;-80
2024/01/01 16:10:07;;;;;;;50.08;21.05;;;;;;;;;;10239442;28;20046;-80
2024/01/01 16:15:08;;;;;;;43.33;22.03;;;;;;;;;;10235876;28;20055;-79
2024/01/01 16:20:10;;;;;;;47.90;20.02;;;;;;;;;;10236618;28;20170;-79
2024/01/01 16:25:13;;;;;;;54.60;21.35;;;;;;;;;;10234637;28;20083;-79
2024/01/01 16:30:14;;;;;;;49.75;19.98;;;;;;;;;;10250480;28;20041;-77
2024/01/01 16:35:14;;;;;;;46.83;20.35;;;;;;;;;;10242922;28;20571;-79
2024/01/01 16:40:14;;;;;;;40.75;18.08;;;;;;;;;;10238366;28;20027;-80
2024/01/01 16:45:15;;;;;;;38.95;17.17;;;;;;;;;;10243673;28;20066;-79
2024/01/01 16:50:15;;;;;;;40.95;17.95;;;;;;;;;;10240483;28;20035;-79
2024/01/01 16:55:16;;;;;;;33.33;16.70;;;;;;;;;;10258061;28;20033;-80
2024/01/01 17:00:16;;;;;;;45.53;16.42;;;;;;;;;;10245542;28;20027;-80
2024/01/01 17:05:18;;;;;;;52.17;17.35;;;;;;;;;;10240467;28;20034;-81
2024/01/01 17:10:18;;;;;;;41.97;19.05;;;;;;;;;;10235723;28;20027;-79
2024/01/01 17:15:19;;;;;;;49.60;18.73;;;;;;;;;;10258879;28;20057;-78
2024/01/01 17:20:19;;;;;;;42.88;21.33;;;;;;;;;;10234966;28;20026;-79
2024/01/01 17:25:20;;;;;;;39.97;18.70;;;;;;;;;;10238626;28;20031;-77
2024/01/01 17:30:20;;;;;;;41.47;19.20;;;;;;;;;;10249306;28;20022;-77
2024/01/01 17:35:21;;;;;;;38.13;18.83;;;;;;;;;;10253570;28;20030;-80
2024/01/01 17:40:21;;;;;;;39.63;17.83;;;;;;;;;;10243418;28;20498;-78
2024/01/01 17:45:21;;;;;;;42.33;19.90;;;;;;;;;;10231983;28;20552;-81
2024/01/01 17:50:21;;;;;;;39.92;18.67;;;;;;;;;;10254480;28;20031;-80
2024/01/01 17:55:22;;;;;;;41.50;20.25;;;;;;;;;;10239638;28;20141;-82
2024/01/01 18:00:22;;;;;;;48.23;21.37;;;;;;;;;;10244241;28;20022;-80
2024/01/01 18:05:22;;;;;;;39.20;18.38;;;;;;;;;;10256685;28;20027;-81
2024/01/01 18:10:22;;;;;;;42.38;21.70;;;;;;;;;;10239931;28;20026;-82
2024/01/01 18:15:25;;;;;;;43.47;21.02;;;;;;;;;;10251815;28;20047;-80
2024/01/01 18:20:25;;;;;;;46.40;20.33;;;;;;;;;;10257822;28;20121;-78
2024/01/01 18:25:25;;;;;;;54.15;21.40;;;;;;;;;;10252789;28;20130;-80
2024/01/01 18:30:26;;;;;;;55.08;21.88;;;;;;;;;;10238455;28;20037;-80
2024/01/01 18:35:27;;;;;;;42.45;19.05;;;;;;;;;;10231738;28;20027;-79
2024/01/01 18:40:28;;;;;;;49.25;19.30;;;;;;;;;;10255300;28;20494;-82
2024/01/01 18:45:28;;;;;;;41.40;19.70;;;;;;;;;;10252956;28;20102;-78
2024/01/01 18:50:28;;;;;;;46.40;19.17;;;;;;;;;;10245727;28;20034;-83
2024/01/01 18:55:28;;;;;;;43.65;19.52;;;;;;;;;;10248866;28;20030;-81
2024/01/01 19:00:28;;;;;;;37.42;19.25;;;;;;;;;;10257086;28;20617;-79
2024/01/01 19:05:30;;;;;;;48.15;21.05;;;;;;;;;;10248412;28;20099;-80
2024/01/01 19:10:30;;;;;;;40.15;19.05;;;;;;;;;;10246526;28;20035;-79
2024/01/01 19:15:33;;;;;;;41.67;20.48;;;;;;;;;;10232975;28;20490;-81
2024/01/01 19:20:37;;;;;;;50.65;20.75;;;;;;;;;;10221753;28;20031;-80
2024/01/01 19:25:38;;;;;;;48.28;23.27;;;;;;;;;;10200051;29;20102;-78
2024/01/01 19:30:40;;;;;;;54.30;23.10;;;;;;;;;;10229195;28;20018;-77
2024/01/01 19:35:40;;;;;;;54.08;24.05;;;;;;;;;;10210605;29;20170;-80
2024/01/01 19:40:41;;;;;;;51.55;25.27;;;;;;;;;;10374103;23;20112;-79
2024/01/01 19:45:41;;;;;;;46.50;23.50;;;;;;;;;;10385423;28;20290;-78
2024/01/01 19:50:44;;;;;;;54.80;22.30;;;;;;;;;;10397001;28;20291;-82
2024/01/01 19:55:45;;;;;;;44.83;22.15;;;;;;;;;;10389078;28;20013;-82
2024/01/01 20:00:48;;;;;;;55.65;26.83;;;;;;;;;;10399077;28;20534;-79
2024/01/01 20:05:49;;;;;;;52.70;36.42;;;;;;;;;;10392469;28;20105;-79
2024/01/01 20:10:50;;;;;;;60.58;47.42;;;;;;;;;;10381679;28;20136;-82
2024/01/01 20:15:51;;;;;;;79.03;71.32;;;;;;;;;;10377813;28;20045;-83
2024/01/01 20:20:51;;;;;;;119.88;110.30;;;;;;;;;;10380638;28;20006;-77
2024/01/01 20:25:51;;;;;;;111.63;101.60;;;;;;;;;;10395093;28;20095;-81
2024/01/01 20:30:52;;;;;;;321.27;289.92;;;;;;;;;;10374915;28;20109;-81
2024/01/01 20:35:52;;;;;;;48.87;22.60;;;;;;;;;;10377433;28;20025;-83
2024/01/01 20:40:52;;;;;;;49.70;24.00;;;;;;;;;;10384068;28;20089;-82
2024/01/01 20:45:53;;;;;;;50.00;23.42;;;;;;;;;;10396679;28;20318;-80
2024/01/01 20:50:53;;;;;;;55.30;24.73;;;;;;;;;;10394043;28;20021;-78
2024/01/01 20:55:53;;;;;;;54.63;25.40;;;;;;;;;;10397687;28;20319;-78
2024/01/01 21:00:53;;;;;;;48.00;23.60;;;;;;;;;;10395096;28;20041;-77
2024/01/01 21:05:54;;;;;;;53.35;23.42;;;;;;;;;;10387594;28;20033;-79
2024/01/01 21:10:54;;;;;;;49.92;21.60;;;;;;;;;;10404007;28;20334;-76
2024/01/01 21:15:54;;;;;;;48.78;22.67;;;;;;;;;;10419785;28;20093;-78
2024/01/01 21:20:55;;;;;;;50.80;24.35;;;;;;;;;;10411910;28;20080;-77
2024/01/01 21:25:55;;;;;;;55.73;23.57;;;;;;;;;;10399293;28;20052;-78
2024/01/01 21:30:56;;;;;;;54.88;28.83;;;;;;;;;;10369565;28;20013;-78
2024/01/01 21:35:56;;;;;;;53.00;24.55;;;;;;;;;;10413798;28;20029;-77
2024/01/01 21:40:56;;;;;;;57.50;26.55;;;;;;;;;;10413554;28;20112;-77
2024/01/01 21:45:56;;;;;;;48.40;25.10;;;;;;;;;;10416002;28;20295;-78
2024/01/01 21:50:57;;;;;;;50.45;24.15;;;;;;;;;;10416548;28;20025;-76
2024/01/01 21:55:57;;;;;;;44.17;23.27;;;;;;;;;;10397331;28;20022;-78
2024/01/01 22:00:57;;;;;;;50.28;24.50;;;;;;;;;;10415808;28;20025;-77
2024/01/01 22:05:57;;;;;;;52.25;23.33;;;;;;;;;;10416510;28;20028;-78
2024/01/01 22:10:58;;;;;;;49.53;26.40;;;;;;;;;;10397537;28;20188;-77
2024/01/01 22:15:58;;;;;;;63.30;24.40;;;;;;;;;;10415860;28;20025;-77
2024/01/01 22:20:58;;;;;;;63.78;25.65;;;;;;;;;;10415621;28;20315;-77
2024/01/01 22:25:59;;;;;;;56.47;25.42;;;;;;;;;;10397073;28;20211;-77
2024/01/01 22:30:59;;;;;;;63.22;27.00;;;;;;;;;;10397436;28;20128;-77
2024/01/01 22:36:00;;;;;;;59.85;26.83;;;;;;;;;;10397803;28;20025;-78
2024/01/01 22:41:03;;;;;;;56.55;24.98;;;;;;;;;;10415220;28;20096;-78
2024/01/01 22:46:04;;;;;;;50.78;24.70;;;;;;;;;;10415554;28;20053;-76
2024/01/01 22:51:04;;;;;;;51.67;24.85;;;;;;;;;;10414296;28;20021;-78
2024/01/01 22:56:04;;;;;;;56.05;25.52;;;;;;;;;;10396957;28;20017;-78
2024/01/01 23:01:04;;;;;;;56.87;24.87;;;;;;;;;;10414638;28;20073;-78
2024/01/01 23:06:05;;;;;;;50.17;24.65;;;;;;;;;;10402359;28;20334;-77
2024/01/01 23:11:05;;;;;;;59.17;24.27;;;;;;;;;;10405541;28;20311;-77
2024/01/01 23:16:05;;;;;;;51.83;23.57;;;;;;;;;;10423448;28;20017;-78
2024/01/01 23:21:06;;;;;;;57.23;24.80;;;;;;;;;;10404763;28;20256;-78
2024/01/01 23:26:06;;;;;;;47.80;22.92;;;;;;;;;;10422529;28;20289;-76
2024/01/01 23:31:06;;;;;;;60.30;24.38;;;;;;;;;;10422224;28;20025;-78
2024/01/01 23:36:06;;;;;;;46.50;23.70;;;;;;;;;;10422199;28;20052;-78
2024/01/01 23:41:07;;;;;;;46.93;22.17;;;;;;;;;;10404062;28;20354;-78
2024/01/01 23:46:07;;;;;;;53.90;23.50;;;;;;;;;;10420464;28;20009;-77
2024/01/01 23:51:07;;;;;;;46.15;23.63;;;;;;;;;;10421589;28;20275;-77
2024/01/01 23:56:07;;;;;;;40.10;21.45;;;;;;;;;;10421086;28;20254;-75
